METAR AND TAF INFORMATION
METAR FOR PHBK
ADDS - METARS form results

(0916 UTC 28 October 2021)
Data provider http://aviationweather.gov/metar/data/
 
METAR text: PHBK 280851Z AUTO 04004KT 10SM CLR 24/19 A3008 RMK AO2 SLP188 T02440194 50007
Conditions at: PHBK (BARKING SANDS/KA, HI, US) observed 0851 UTC 28 October 2021
Temperature: 24.4°C (76°F)
Dewpoint: 19.4°C (67°F) [RH = 74%]
Pressure (altimeter): 30.08 inches Hg (1018.7 mb)
[Sea-level pressure: 1018.8 mb]
Winds: from the NE (40 degrees) at 5 MPH (4 knots; 2.1 m/s)
Visibility: 10 or more miles (16+ km)
Ceiling: at least 12,000 feet AGL
Clouds: sky clear below 12,000 feet AGL
Weather: automated observation with no human augmentation;
there may or may not be significant weather present at this time

 AIRPORT MAP

 RUNWAY INFORMATION
Runway 16 Runway length 6006 ft Runway width 146 ft
Runway elevation 23 ft Runway displaced threshold 0 ft Runway heading 170
Runway 34 Runway length 6006 ft Runway width 146 ft
Runway elevation 21 ft Runway displaced threshold 0 ft Runway heading 350

 AIRPORT FREQUENCIES
Type CNTR Name HONOLULU C Frequency 126.5 MHZ
Type OPS Name RANGE OUTR Frequency 32.285 MHZ
Type TWR Name TWR Frequency 126.2 MHZ
Type UNIC Name UNICOM Frequency 122.8 MHZ

 AIRPORT NEAR NAVIGATION AIDS
Type TACAN Name Barking Sands Frequency 112600 KHZ
Type VORTAC Name South Kauai Frequency 115400 KHZ

-